Time,TemperatureF,DewpointF,PressureIn,WindDirection,WindDirectionDegrees,WindSpeedMPH,WindSpeedGustMPH,Humidity,HourlyPrecipIn,Conditions,Clouds,dailyrainin,SolarRadiationWatts/m^2,SoftwareType,DateUTC
2013-03-01 00:05:00,46.7,43.6,30.44,SSW,210,0.0,0.0,89,0.00,,,0.00,0,Wunderground v.1.15,2013-03-01 08:05:00,
2013-03-01 00:11:00,46.6,43.5,30.44,SSW,210,0.0,0.0,89,0.00,,,0.00,0,Wunderground v.1.15,2013-03-01 08:11:00,
2013-03-01 00:17:00,46.5,43.4,30.44,SSW,210,0.0,0.0,89,0.00,,,0.00,0,Wunderground v.1.15,2013-03-01 08:17:00,
2013-03-01 00:23:00,46.3,43.2,30.44,SSW,210,0.0,0.0,89,0.00,,,0.00,0,Wunderground v.1.15,2013-03-01 08:23:00,
2013-03-01 00:29:00,46.1,43.0,30.44,SSW,210,0.0,0.0,89,0.00,,,0.00,0,Wunderground v.1.15,2013-03-01 08:29:00,
2013-03-01 00:35:00,46.0,42.9,30.44,SSW,210,0.0,0.0,89,0.00,,,0.00,0,Wunderground v.1.15,2013-03-01 08:35:00,
2013-03-01 00:41:00,45.8,42.7,30.44,SSW,210,0.0,0.0,89,0.00,,,0.00,0,Wunderground v.1.15,2013-03-01 08:41:00,
2013-03-01 00:47:00,45.6,42.5,30.44,SSW,210,0.0,0.0,89,0.00,,,0.00,0,Wunderground v.1.15,2013-03-01 08:47:00,
2013-03-01 00:53:00,45.4,42.3,30.44,SSW,210,0.0,0.0,89,0.00,,,0.00,0,Wunderground v.1.15,2013-03-01 08:53:00,
2013-03-01 00:59:00,45.1,42.1,30.44,SSW,210,0.0,0.0,89,0.00,,,0.00,0,Wunderground v.1.15,2013-03-01 08:59:00,
2013-03-01 01:05:00,45.0,42.0,30.44,SSW,210,0.0,0.0,89,0.00,,,0.00,0,Wunderground v.1.15,2013-03-01 09:05:00,
2013-03-01 01:11:00,44.9,42.1,30.44,SSW,210,0.0,0.0,90,0.00,,,0.00,0,Wunderground v.1.15,2013-03-01 09:11:00,
2013-03-01 01:17:00,44.7,41.9,30.44,SSW,210,0.0,0.0,90,0.00,,,0.00,0,Wunderground v.1.15,2013-03-01 09:17:00,
2013-03-01 01:23:00,44.6,41.8,30.44,SSW,210,0.0,0.0,90,0.00,,,0.00,0,Wunderground v.1.15,2013-03-01 09:23:00,
2013-03-01 01:29:00,44.4,41.7,30.44,SSW,210,0.0,0.0,90,0.00,,,0.00,0,Wunderground v.1.15,2013-03-01 09:29:00,
2013-03-01 01:35:00,44.3,41.6,30.45,SSW,210,0.0,0.0,90,0.00,,,0.00,0,Wunderground v.1.15,2013-03-01 09:35:00,
2013-03-01 01:41:00,44.1,41.4,30.45,SSW,210,0.0,0.0,90,0.00,,,0.00,0,Wunderground v.1.15,2013-03-01 09:41:00,
2013-03-01 01:47:00,43.9,41.2,30.45,SSW,210,0.0,0.0,90,0.00,,,0.00,0,Wunderground v.1.15,2013-03-01 09:47:00,
2013-03-01 01:53:00,43.8,41.1,30.45,SSW,210,0.0,0.0,90,0.00,,,0.00,0,Wunderground v.1.15,2013-03-01 09:53:00,
2013-03-01 01:59:00,43.6,40.9,30.45,SSW,210,0.0,0.0,90,0.00,,,0.00,0,Wunderground v.1.15,2013-03-01 09:59:00,
2013-03-01 02:05:00,43.5,40.8,30.45,SSW,210,0.0,0.0,90,0.00,,,0.00,0,Wunderground v.1.15,2013-03-01 10:05:00,
2013-03-01 02:11:00,43.4,40.7,30.45,SSW,210,0.0,0.0,90,0.00,,,0.00,0,Wunderground v.1.15,2013-03-01 10:11:00,
2013-03-01 02:17:00,43.2,40.8,30.45,SSW,210,0.0,1.0,91,0.00,,,0.00,0,Wunderground v.1.15,2013-03-01 10:17:00,
2013-03-01 02:23:00,43.1,40.4,30.45,SSW,210,0.0,0.0,90,0.00,,,0.00,0,Wunderground v.1.15,2013-03-01 10:23:00,
2013-03-01 02:29:00,42.9,40.5,30.45,SSW,210,0.0,0.0,91,0.00,,,0.00,0,Wunderground v.1.15,2013-03-01 10:29:00,
2013-03-01 02:35:00,42.7,40.3,30.44,SSW,210,0.0,0.0,91,0.00,,,0.00,0,Wunderground v.1.15,2013-03-01 10:35:00,
2013-03-01 02:41:00,42.6,40.2,30.44,SSW,210,0.0,0.0,91,0.00,,,0.00,0,Wunderground v.1.15,2013-03-01 10:41:00,
2013-03-01 02:47:00,42.5,40.1,30.44,SSW,210,0.0,0.0,91,0.00,,,0.00,0,Wunderground v.1.15,2013-03-01 10:47:00,
2013-03-01 02:53:00,42.5,40.1,30.44,SSW,210,0.0,0.0,91,0.00,,,0.00,0,Wunderground v.1.15,2013-03-01 10:53:00,
2013-03-01 02:59:00,42.4,40.0,30.44,SSW,210,0.0,1.0,91,0.00,,,0.00,0,Wunderground v.1.15,2013-03-01 10:59:00,
2013-03-01 03:05:00,42.3,39.9,30.44,SSW,210,0.0,1.0,91,0.00,,,0.00,0,Wunderground v.1.15,2013-03-01 11:05:00,
2013-03-01 03:11:00,42.2,39.8,30.44,SSW,210,0.0,1.0,91,0.00,,,0.00,0,Wunderground v.1.15,2013-03-01 11:11:00,
2013-03-01 03:17:00,42.0,39.6,30.44,SSW,210,0.0,1.0,91,0.00,,,0.00,0,Wunderground v.1.15,2013-03-01 11:17:00,
2013-03-01 03:23:00,41.9,39.5,30.44,SSW,210,0.0,1.0,91,0.00,,,0.00,0,Wunderground v.1.15,2013-03-01 11:23:00,
2013-03-01 03:29:00,41.9,39.5,30.44,SSW,210,0.0,1.0,91,0.00,,,0.00,0,Wunderground v.1.15,2013-03-01 11:29:00,
2013-03-01 03:35:00,41.8,39.4,30.44,SSW,210,0.0,1.0,91,0.00,,,0.00,0,Wunderground v.1.15,2013-03-01 11:35:00,
2013-03-01 03:41:00,41.7,39.3,30.44,SSW,210,0.0,1.0,91,0.00,,,0.00,0,Wunderground v.1.15,2013-03-01 11:41:00,
2013-03-01 03:47:00,41.7,39.5,30.44,SSW,210,0.0,1.0,92,0.00,,,0.00,0,Wunderground v.1.15,2013-03-01 11:47:00,
2013-03-01 03:53:00,41.6,39.2,30.44,SSW,210,0.0,1.0,91,0.00,,,0.00,0,Wunderground v.1.15,2013-03-01 11:53:00,
2013-03-01 03:59:00,41.5,39.1,30.44,SSW,210,0.0,0.0,91,0.00,,,0.00,0,Wunderground v.1.15,2013-03-01 11:59:00,
2013-03-01 04:05:00,41.3,39.2,30.44,SSW,210,0.0,1.0,92,0.00,,,0.00,0,Wunderground v.1.15,2013-03-01 12:05:00,
2013-03-01 04:11:00,41.1,39.0,30.44,SSW,210,0.0,0.0,92,0.00,,,0.00,0,Wunderground v.1.15,2013-03-01 12:11:00,
2013-03-01 04:17:00,40.9,38.5,30.44,SSW,210,0.0,0.0,91,0.00,,,0.00,0,Wunderground v.1.15,2013-03-01 12:17:00,
2013-03-01 04:23:00,40.9,38.8,30.44,SSW,210,0.0,1.0,92,0.00,,,0.00,0,Wunderground v.1.15,2013-03-01 12:23:00,
2013-03-01 04:29:00,40.8,38.7,30.44,SSW,210,0.0,0.0,92,0.00,,,0.00,0,Wunderground v.1.15,2013-03-01 12:29:00,
2013-03-01 04:35:00,40.7,38.6,30.44,SSW,210,0.0,0.0,92,0.00,,,0.00,0,Wunderground v.1.15,2013-03-01 12:35:00,
2013-03-01 04:41:00,40.6,38.5,30.44,SSW,210,0.0,0.0,92,0.00,,,0.00,0,Wunderground v.1.15,2013-03-01 12:41:00,
2013-03-01 04:47:00,40.6,38.5,30.44,SSW,210,0.0,0.0,92,0.00,,,0.00,0,Wunderground v.1.15,2013-03-01 12:47:00,
2013-03-01 04:53:00,40.5,38.4,30.43,SSW,210,0.0,0.0,92,0.00,,,0.00,0,Wunderground v.1.15,2013-03-01 12:53:00,
2013-03-01 04:59:00,40.4,38.3,30.43,SSW,210,0.0,2.0,92,0.00,,,0.00,0,Wunderground v.1.15,2013-03-01 12:59:00,
2013-03-01 05:05:00,40.4,38.3,30.43,SSW,210,0.0,2.0,92,0.00,,,0.00,0,Wunderground v.1.15,2013-03-01 13:05:00,
2013-03-01 05:11:00,40.3,38.2,30.43,SSW,210,0.0,2.0,92,0.00,,,0.00,0,Wunderground v.1.15,2013-03-01 13:11:00,
2013-03-01 05:17:00,40.3,38.2,30.43,SSW,210,0.0,2.0,92,0.00,,,0.00,0,Wunderground v.1.15,2013-03-01 13:17:00,
2013-03-01 05:23:00,40.2,38.1,30.42,SSW,210,0.0,2.0,92,0.00,,,0.00,0,Wunderground v.1.15,2013-03-01 13:23:00,
2013-03-01 05:29:00,40.1,38.0,30.43,SSW,210,0.0,2.0,92,0.00,,,0.00,0,Wunderground v.1.15,2013-03-01 13:29:00,
2013-03-01 05:35:00,40.0,37.9,30.43,SSW,210,0.0,2.0,92,0.00,,,0.00,0,Wunderground v.1.15,2013-03-01 13:35:00,
2013-03-01 05:41:00,40.0,38.1,30.42,SSW,210,0.0,2.0,93,0.00,,,0.00,0,Wunderground v.1.15,2013-03-01 13:41:00,
2013-03-01 05:47:00,40.0,38.1,30.42,SSW,210,0.0,2.0,93,0.00,,,0.00,0,Wunderground v.1.15,2013-03-01 13:47:00,
2013-03-01 05:53:00,40.0,38.1,30.42,SSW,210,0.0,2.0,93,0.00,,,0.00,0,Wunderground v.1.15,2013-03-01 13:53:00,
2013-03-01 05:59:00,40.0,38.1,30.42,SSW,210,0.0,0.0,93,0.00,,,0.00,0,Wunderground v.1.15,2013-03-01 13:59:00,
2013-03-01 06:05:00,40.1,38.2,30.43,SSW,210,0.0,0.0,93,0.00,,,0.00,0,Wunderground v.1.15,2013-03-01 14:05:00,
2013-03-01 06:11:00,40.1,38.2,30.42,SSW,210,0.0,0.0,93,0.00,,,0.00,0,Wunderground v.1.15,2013-03-01 14:11:00,
2013-03-01 06:17:00,40.0,38.1,30.42,SSW,210,0.0,0.0,93,0.00,,,0.00,0,Wunderground v.1.15,2013-03-01 14:17:00,
2013-03-01 06:23:00,39.9,38.0,30.42,SSW,210,0.0,0.0,93,0.00,,,0.00,0,Wunderground v.1.15,2013-03-01 14:23:00,
2013-03-01 06:29:00,39.9,38.0,30.42,SSW,210,0.0,0.0,93,0.00,,,0.00,0,Wunderground v.1.15,2013-03-01 14:29:00,
2013-03-01 06:35:00,39.9,38.0,30.42,SSW,210,0.0,0.0,93,0.00,,,0.00,0,Wunderground v.1.15,2013-03-01 14:35:00,
2013-03-01 06:41:00,39.8,37.9,30.42,SSW,210,0.0,0.0,93,0.00,,,0.00,0,Wunderground v.1.15,2013-03-01 14:41:00,
2013-03-01 06:47:00,39.8,37.9,30.42,SSW,210,0.0,0.0,93,0.00,,,0.00,7,Wunderground v.1.15,2013-03-01 14:47:00,
2013-03-01 06:53:00,39.8,37.9,30.42,SSW,210,0.0,0.0,93,0.00,,,0.00,9,Wunderground v.1.15,2013-03-01 14:53:00,
2013-03-01 06:59:00,39.8,37.9,30.41,SSW,210,0.0,1.0,93,0.00,,,0.00,12,Wunderground v.1.15,2013-03-01 14:59:00,
2013-03-01 07:05:00,39.8,37.9,30.41,SSW,210,0.0,1.0,93,0.00,,,0.00,16,Wunderground v.1.15,2013-03-01 15:05:00,
2013-03-01 07:11:00,39.9,38.0,30.41,SSW,210,0.0,1.0,93,0.00,,,0.00,26,Wunderground v.1.15,2013-03-01 15:11:00,
2013-03-01 07:17:00,40.0,38.1,30.41,SSW,210,0.0,1.0,93,0.00,,,0.00,40,Wunderground v.1.15,2013-03-01 15:17:00,
2013-03-01 07:23:00,40.0,38.1,30.41,SSW,210,0.0,1.0,93,0.00,,,0.00,53,Wunderground v.1.15,2013-03-01 15:23:00,
2013-03-01 07:29:00,40.1,38.2,30.41,SSW,210,0.0,1.0,93,0.00,,,0.00,70,Wunderground v.1.15,2013-03-01 15:29:00,
2013-03-01 07:35:00,40.4,38.8,30.41,SSW,210,0.0,1.0,94,0.00,,,0.00,84,Wunderground v.1.15,2013-03-01 15:35:00,
2013-03-01 07:41:00,40.7,39.1,30.41,SSW,210,0.0,1.0,94,0.00,,,0.00,113,Wunderground v.1.15,2013-03-01 15:41:00,
2013-03-01 07:47:00,41.5,40.2,30.41,SSW,210,0.0,1.0,95,0.00,,,0.00,125,Wunderground v.1.15,2013-03-01 15:47:00,
2013-03-01 07:53:00,42.2,40.9,30.41,SSW,210,0.0,1.0,95,0.00,,,0.00,144,Wunderground v.1.15,2013-03-01 15:53:00,
2013-03-01 07:59:00,43.0,41.7,30.41,SSW,210,0.0,1.0,95,0.00,,,0.00,165,Wunderground v.1.15,2013-03-01 15:59:00,
2013-03-01 08:05:00,44.2,42.9,30.41,SSW,210,0.0,1.0,95,0.00,,,0.00,186,Wunderground v.1.15,2013-03-01 16:05:00,
2013-03-01 08:11:00,45.3,44.0,30.41,SSW,210,0.0,1.0,95,0.00,,,0.00,206,Wunderground v.1.15,2013-03-01 16:11:00,
2013-03-01 08:17:00,46.3,44.9,30.41,SSW,210,0.0,1.0,95,0.00,,,0.00,225,Wunderground v.1.15,2013-03-01 16:17:00,
2013-03-01 08:23:00,47.3,45.9,30.41,SSW,210,0.0,1.0,95,0.00,,,0.00,241,Wunderground v.1.15,2013-03-01 16:23:00,
2013-03-01 08:29:00,48.3,46.9,30.41,SSW,210,0.0,1.0,95,0.00,,,0.00,258,Wunderground v.1.15,2013-03-01 16:29:00,
2013-03-01 08:35:00,49.3,47.9,30.41,SSW,210,0.0,1.0,95,0.00,,,0.00,276,Wunderground v.1.15,2013-03-01 16:35:00,
2013-03-01 08:41:00,50.3,48.9,30.41,SSW,210,0.0,1.0,95,0.00,,,0.00,295,Wunderground v.1.15,2013-03-01 16:41:00,
2013-03-01 08:47:00,51.2,49.8,30.41,SSW,210,0.0,1.0,95,0.00,,,0.00,315,Wunderground v.1.15,2013-03-01 16:47:00,
2013-03-01 08:53:00,52.2,50.5,30.41,SSW,210,0.0,1.0,94,0.00,,,0.00,334,Wunderground v.1.15,2013-03-01 16:53:00,
2013-03-01 08:59:00,53.5,51.2,30.41,SSW,210,0.0,1.0,92,0.00,,,0.00,355,Wunderground v.1.15,2013-03-01 16:59:00,
2013-03-01 09:05:00,54.5,51.3,30.41,SSW,210,0.0,1.0,89,0.00,,,0.00,376,Wunderground v.1.15,2013-03-01 17:05:00,
2013-03-01 09:11:00,55.7,51.3,30.41,SSW,210,0.0,1.0,85,0.00,,,0.00,396,Wunderground v.1.15,2013-03-01 17:11:00,
2013-03-01 09:17:00,57.0,51.6,30.41,SSW,210,0.0,1.0,82,0.00,,,0.00,418,Wunderground v.1.15,2013-03-01 17:17:00,
2013-03-01 09:23:00,57.9,51.4,30.41,SSW,192,1.0,2.0,79,0.00,,,0.00,436,Wunderground v.1.15,2013-03-01 17:23:00,
2013-03-01 09:29:00,58.7,51.9,30.41,NW,321,1.0,2.0,78,0.00,,,0.00,452,Wunderground v.1.15,2013-03-01 17:29:00,
2013-03-01 09:35:00,59.1,51.5,30.41,NNE,30,1.0,2.0,76,0.00,,,0.00,469,Wunderground v.1.15,2013-03-01 17:35:00,
2013-03-01 09:41:00,59.8,51.9,30.41,NNE,30,0.0,1.0,75,0.00,,,0.00,485,Wunderground v.1.15,2013-03-01 17:41:00,
2013-03-01 09:47:00,60.4,52.1,30.40,NNW,339,1.0,3.0,74,0.00,,,0.00,501,Wunderground v.1.15,2013-03-01 17:47:00,
2013-03-01 09:53:00,60.9,52.6,30.41,NW,308,1.0,1.0,74,0.00,,,0.00,515,Wunderground v.1.15,2013-03-01 17:53:00,
2013-03-01 09:59:00,61.3,52.2,30.40,West,279,1.0,1.0,72,0.00,,,0.00,531,Wunderground v.1.15,2013-03-01 17:59:00,
2013-03-01 10:05:00,61.9,52.4,30.40,West,279,1.0,3.0,71,0.00,,,0.00,545,Wunderground v.1.15,2013-03-01 18:05:00,
2013-03-01 10:11:00,62.7,52.8,30.40,West,278,0.0,3.0,70,0.00,,,0.00,559,Wunderground v.1.15,2013-03-01 18:11:00,
2013-03-01 10:17:00,63.5,52.3,30.40,SSE,149,1.0,3.0,67,0.00,,,0.00,571,Wunderground v.1.15,2013-03-01 18:17:00,
2013-03-01 10:23:00,63.9,52.3,30.40,SSE,148,1.0,3.0,66,0.00,,,0.00,585,Wunderground v.1.15,2013-03-01 18:23:00,
2013-03-01 10:29:00,64.4,52.8,30.40,ESE,118,1.0,3.0,66,0.00,,,0.00,596,Wunderground v.1.15,2013-03-01 18:29:00,
2013-03-01 10:35:00,64.9,53.3,30.39,SE,143,1.0,3.0,66,0.00,,,0.00,608,Wunderground v.1.15,2013-03-01 18:35:00,
2013-03-01 10:41:00,65.4,52.9,30.39,SE,143,0.0,3.0,64,0.00,,,0.00,619,Wunderground v.1.15,2013-03-01 18:41:00,
2013-03-01 10:47:00,65.9,52.9,30.39,SE,143,0.0,3.0,63,0.00,,,0.00,629,Wunderground v.1.15,2013-03-01 18:47:00,
2013-03-01 10:53:00,66.9,53.5,30.39,SE,143,0.0,3.0,62,0.00,,,0.00,640,Wunderground v.1.15,2013-03-01 18:53:00,
2013-03-01 10:59:00,67.3,53.4,30.39,West,275,1.0,6.0,61,0.00,,,0.00,647,Wunderground v.1.15,2013-03-01 18:59:00,
2013-03-01 11:05:00,67.3,53.4,30.39,West,278,1.0,6.0,61,0.00,,,0.00,656,Wunderground v.1.15,2013-03-01 19:05:00,
2013-03-01 11:11:00,67.8,53.4,30.39,WNW,294,2.0,6.0,60,0.00,,,0.00,663,Wunderground v.1.15,2013-03-01 19:11:00,
2013-03-01 11:17:00,67.6,52.8,30.38,NNW,344,2.0,6.0,59,0.00,,,0.00,670,Wunderground v.1.15,2013-03-01 19:17:00,
2013-03-01 11:23:00,67.7,52.9,30.38,NW,319,2.0,6.0,59,0.00,,,0.00,677,Wunderground v.1.15,2013-03-01 19:23:00,
2013-03-01 11:29:00,68.1,52.8,30.38,WNW,295,2.0,2.0,58,0.00,,,0.00,680,Wunderground v.1.15,2013-03-01 19:29:00,
2013-03-01 11:35:00,68.6,52.8,30.38,NE,40,1.0,6.0,57,0.00,,,0.00,689,Wunderground v.1.15,2013-03-01 19:35:00,
2013-03-01 11:41:00,69.1,53.2,30.37,WNW,290,1.0,3.0,57,0.00,,,0.00,696,Wunderground v.1.15,2013-03-01 19:41:00,
2013-03-01 11:47:00,69.0,52.6,30.37,NNW,341,1.0,6.0,56,0.00,,,0.00,700,Wunderground v.1.15,2013-03-01 19:47:00,
2013-03-01 11:53:00,69.5,53.1,30.36,North,360,1.0,6.0,56,0.00,,,0.00,703,Wunderground v.1.15,2013-03-01 19:53:00,
2013-03-01 11:59:00,69.9,53.0,30.36,WNW,288,1.0,1.0,55,0.00,,,0.00,707,Wunderground v.1.15,2013-03-01 19:59:00,
2013-03-01 12:05:00,70.1,52.2,30.36,WNW,296,1.0,6.0,53,0.00,,,0.00,710,Wunderground v.1.15,2013-03-01 20:05:00,
2013-03-01 12:11:00,70.6,52.6,30.36,WNW,302,1.0,6.0,53,0.00,,,0.00,710,Wunderground v.1.15,2013-03-01 20:11:00,
2013-03-01 12:17:00,70.8,52.3,30.35,NW,311,1.0,6.0,52,0.00,,,0.00,714,Wunderground v.1.15,2013-03-01 20:17:00,
2013-03-01 12:23:00,71.2,52.1,30.34,West,281,2.0,6.0,51,0.00,,,0.00,715,Wunderground v.1.15,2013-03-01 20:23:00,
2013-03-01 12:29:00,71.3,52.2,30.34,WSW,242,1.0,1.0,51,0.00,,,0.00,714,Wunderground v.1.15,2013-03-01 20:29:00,
2013-03-01 12:35:00,71.9,52.2,30.34,WNW,289,1.0,6.0,50,0.00,,,0.00,715,Wunderground v.1.15,2013-03-01 20:35:00,
2013-03-01 12:41:00,72.1,51.3,30.33,West,277,1.0,6.0,48,0.00,,,0.00,714,Wunderground v.1.15,2013-03-01 20:41:00,
2013-03-01 12:47:00,72.2,51.4,30.33,ESE,109,1.0,6.0,48,0.00,,,0.00,712,Wunderground v.1.15,2013-03-01 20:47:00,
2013-03-01 12:53:00,73.0,51.6,30.32,SSE,153,1.0,6.0,47,0.00,,,0.00,708,Wunderground v.1.15,2013-03-01 20:53:00,
2013-03-01 12:59:00,73.0,51.6,30.32,West,279,1.0,6.0,47,0.00,,,0.00,707,Wunderground v.1.15,2013-03-01 20:59:00,
2013-03-01 13:05:00,73.5,52.0,30.32,West,275,1.0,6.0,47,0.00,,,0.00,703,Wunderground v.1.15,2013-03-01 21:05:00,
2013-03-01 13:11:00,74.1,52.0,30.32,SE,144,1.0,6.0,46,0.00,,,0.00,698,Wunderground v.1.15,2013-03-01 21:11:00,
2013-03-01 13:17:00,74.0,51.9,30.31,NW,326,1.0,6.0,46,0.00,,,0.00,694,Wunderground v.1.15,2013-03-01 21:17:00,
2013-03-01 13:23:00,73.8,52.3,30.31,SSW,211,2.0,6.0,47,0.00,,,0.00,668,Wunderground v.1.15,2013-03-01 21:23:00,
2013-03-01 13:29:00,73.9,51.8,30.31,East,100,2.0,6.0,46,0.00,,,0.00,668,Wunderground v.1.15,2013-03-01 21:29:00,
2013-03-01 13:35:00,73.9,51.8,30.31,ESE,102,1.0,6.0,46,0.00,,,0.00,682,Wunderground v.1.15,2013-03-01 21:35:00,
2013-03-01 13:41:00,74.0,52.5,30.30,South,173,2.0,6.0,47,0.00,,,0.00,659,Wunderground v.1.15,2013-03-01 21:41:00,
2013-03-01 13:47:00,73.9,52.4,30.30,SE,126,3.0,6.0,47,0.00,,,0.00,638,Wunderground v.1.15,2013-03-01 21:47:00,
2013-03-01 13:53:00,73.9,52.4,30.30,SSE,147,4.0,6.0,47,0.00,,,0.00,657,Wunderground v.1.15,2013-03-01 21:53:00,
2013-03-01 13:59:00,74.5,53.5,30.29,SSW,204,2.0,6.0,48,0.00,,,0.00,643,Wunderground v.1.15,2013-03-01 21:59:00,
2013-03-01 14:05:00,74.3,54.5,30.29,SW,215,3.0,6.0,50,0.00,,,0.00,633,Wunderground v.1.15,2013-03-01 22:05:00,
2013-03-01 14:11:00,74.4,54.0,30.29,WSW,245,2.0,6.0,49,0.00,,,0.00,613,Wunderground v.1.15,2013-03-01 22:11:00,
2013-03-01 14:17:00,74.2,53.8,30.29,WSW,248,2.0,6.0,49,0.00,,,0.00,601,Wunderground v.1.15,2013-03-01 22:17:00,
2013-03-01 14:23:00,74.1,53.7,30.29,NNW,329,2.0,6.0,49,0.00,,,0.00,598,Wunderground v.1.15,2013-03-01 22:23:00,
2013-03-01 14:29:00,74.4,53.4,30.29,SSW,202,2.0,6.0,48,0.00,,,0.00,578,Wunderground v.1.15,2013-03-01 22:29:00,
2013-03-01 14:35:00,74.5,54.1,30.28,SE,144,2.0,6.0,49,0.00,,,0.00,573,Wunderground v.1.15,2013-03-01 22:35:00,
2013-03-01 14:41:00,73.8,53.4,30.28,WSW,244,1.0,4.0,49,0.00,,,0.00,563,Wunderground v.1.15,2013-03-01 22:41:00,
2013-03-01 14:47:00,74.0,53.1,30.28,West,267,2.0,6.0,48,0.00,,,0.00,550,Wunderground v.1.15,2013-03-01 22:47:00,
2013-03-01 14:53:00,74.0,53.1,30.28,WNW,285,2.0,6.0,48,0.00,,,0.00,534,Wunderground v.1.15,2013-03-01 22:53:00,
2013-03-01 14:59:00,74.6,53.6,30.27,West,261,2.0,6.0,48,0.00,,,0.00,512,Wunderground v.1.15,2013-03-01 22:59:00,
2013-03-01 15:05:00,74.7,53.7,30.27,SW,217,2.0,6.0,48,0.00,,,0.00,406,Wunderground v.1.15,2013-03-01 23:05:00,
2013-03-01 15:11:00,74.8,53.2,30.27,West,259,3.0,6.0,47,0.00,,,0.00,411,Wunderground v.1.15,2013-03-01 23:11:00,
2013-03-01 15:17:00,74.4,53.4,30.27,WNW,287,3.0,6.0,48,0.00,,,0.00,401,Wunderground v.1.15,2013-03-01 23:17:00,
2013-03-01 15:23:00,74.2,53.2,30.28,WNW,296,3.0,6.0,48,0.00,,,0.00,466,Wunderground v.1.15,2013-03-01 23:23:00,
2013-03-01 15:29:00,74.0,53.1,30.27,West,270,3.0,3.0,48,0.00,,,0.00,448,Wunderground v.1.15,2013-03-01 23:29:00,
2013-03-01 15:35:00,74.0,53.1,30.27,SW,220,3.0,6.0,48,0.00,,,0.00,415,Wunderground v.1.15,2013-03-01 23:35:00,
2013-03-01 15:41:00,73.8,53.4,30.27,SSW,194,2.0,6.0,49,0.00,,,0.00,388,Wunderground v.1.15,2013-03-01 23:41:00,
2013-03-01 15:47:00,73.7,53.9,30.27,WSW,246,3.0,6.0,50,0.00,,,0.00,388,Wunderground v.1.15,2013-03-01 23:47:00,
2013-03-01 15:55:00,73.2,54.0,30.27,SSW,203,4.0,7.0,51,0.00,,,0.00,352,Wunderground v.1.15,2013-03-01 23:55:00,
2013-03-01 16:01:00,73.0,54.3,30.27,SW,214,3.0,7.0,52,0.00,,,0.00,332,Wunderground v.1.15,2013-03-02 00:01:00,
2013-03-01 16:08:00,72.7,54.1,30.27,SW,219,2.0,7.0,52,0.00,,,0.00,322,Wunderground v.1.15,2013-03-02 00:08:00,
2013-03-01 16:14:00,72.3,54.2,30.27,SW,223,3.0,8.0,53,0.00,,,0.00,257,Wunderground v.1.15,2013-03-02 00:14:00,
2013-03-01 16:20:00,72.1,54.0,30.26,WSW,244,3.0,3.0,53,0.00,,,0.00,276,Wunderground v.1.15,2013-03-02 00:20:00,
2013-03-01 16:26:00,72.0,53.9,30.26,WSW,252,1.0,7.0,53,0.00,,,0.00,258,Wunderground v.1.15,2013-03-02 00:26:00,
2013-03-01 16:32:00,71.8,54.3,30.27,SW,223,2.0,7.0,54,0.00,,,0.00,193,Wunderground v.1.15,2013-03-02 00:32:00,
2013-03-01 16:38:00,71.4,53.9,30.26,SSW,211,2.0,7.0,54,0.00,,,0.00,169,Wunderground v.1.15,2013-03-02 00:38:00,
2013-03-01 16:44:00,71.0,54.0,30.26,SW,228,2.0,7.0,55,0.00,,,0.00,149,Wunderground v.1.15,2013-03-02 00:44:00,
2013-03-01 16:50:00,70.9,53.9,30.26,West,260,1.0,1.0,55,0.00,,,0.00,84,Wunderground v.1.15,2013-03-02 00:50:00,
2013-03-01 16:56:00,70.7,54.2,30.26,WSW,246,1.0,7.0,56,0.00,,,0.00,81,Wunderground v.1.15,2013-03-02 00:56:00,
2013-03-01 17:02:00,70.6,53.6,30.26,WSW,246,1.0,12.0,55,0.00,,,0.00,67,Wunderground v.1.15,2013-03-02 01:02:00,
2013-03-01 17:08:00,70.4,54.0,30.26,WSW,245,0.0,12.0,56,0.00,,,0.00,77,Wunderground v.1.15,2013-03-02 01:08:00,
2013-03-01 17:14:00,70.3,53.9,30.26,WSW,245,0.0,12.0,56,0.00,,,0.00,79,Wunderground v.1.15,2013-03-02 01:14:00,
2013-03-01 17:20:00,70.1,54.2,30.26,WSW,245,0.0,12.0,57,0.00,,,0.00,49,Wunderground v.1.15,2013-03-02 01:20:00,
2013-03-01 17:26:00,69.9,54.0,30.26,WSW,245,0.0,12.0,57,0.00,,,0.00,42,Wunderground v.1.15,2013-03-02 01:26:00,
2013-03-01 17:32:00,69.5,53.1,30.26,WSW,253,0.0,12.0,56,0.00,,,0.00,35,Wunderground v.1.15,2013-03-02 01:32:00,
2013-03-01 17:38:00,69.1,52.7,30.26,West,266,1.0,12.0,56,0.00,,,0.00,28,Wunderground v.1.15,2013-03-02 01:38:00,
2013-03-01 17:44:00,68.6,52.8,30.26,West,267,0.0,12.0,57,0.00,,,0.00,25,Wunderground v.1.15,2013-03-02 01:44:00,
2013-03-01 17:50:00,68.0,52.7,30.25,West,267,0.0,12.0,58,0.00,,,0.00,21,Wunderground v.1.15,2013-03-02 01:50:00,
2013-03-01 17:56:00,67.4,52.6,30.26,West,267,0.0,12.0,59,0.00,,,0.00,12,Wunderground v.1.15,2013-03-02 01:56:00,
2013-03-01 18:02:00,66.9,52.1,30.26,West,267,0.0,4.0,59,0.00,,,0.00,5,Wunderground v.1.15,2013-03-02 02:02:00,
2013-03-01 18:08:00,66.5,51.7,30.26,West,267,0.0,4.0,59,0.00,,,0.00,0,Wunderground v.1.15,2013-03-02 02:08:00,
2013-03-01 18:14:00,65.9,51.6,30.26,West,267,0.0,4.0,60,0.00,,,0.00,0,Wunderground v.1.15,2013-03-02 02:14:00,
2013-03-01 18:20:00,65.4,51.6,30.26,West,267,0.0,4.0,61,0.00,,,0.00,0,Wunderground v.1.15,2013-03-02 02:20:00,
2013-03-01 18:26:00,65.0,51.7,30.26,West,267,0.0,4.0,62,0.00,,,0.00,0,Wunderground v.1.15,2013-03-02 02:26:00,
2013-03-01 18:32:00,64.5,51.2,30.26,West,267,0.0,4.0,62,0.00,,,0.00,0,Wunderground v.1.15,2013-03-02 02:32:00,
2013-03-01 18:38:00,64.0,51.6,30.27,West,267,0.0,4.0,64,0.00,,,0.00,0,Wunderground v.1.15,2013-03-02 02:38:00,
2013-03-01 18:44:00,63.6,52.0,30.27,West,267,0.0,4.0,66,0.00,,,0.00,0,Wunderground v.1.15,2013-03-02 02:44:00,
2013-03-01 18:50:00,63.2,51.6,30.27,West,267,0.0,4.0,66,0.00,,,0.00,0,Wunderground v.1.15,2013-03-02 02:50:00,
2013-03-01 18:56:00,62.7,51.2,30.27,West,267,0.0,4.0,66,0.00,,,0.00,0,Wunderground v.1.15,2013-03-02 02:56:00,
2013-03-01 19:02:00,62.2,50.7,30.27,West,267,0.0,1.0,66,0.00,,,0.00,0,Wunderground v.1.15,2013-03-02 03:02:00,
2013-03-01 19:08:00,61.7,51.0,30.27,West,267,0.0,1.0,68,0.00,,,0.00,0,Wunderground v.1.15,2013-03-02 03:08:00,
2013-03-01 19:14:00,61.2,50.6,30.27,West,267,0.0,1.0,68,0.00,,,0.00,0,Wunderground v.1.15,2013-03-02 03:14:00,
2013-03-01 19:20:00,60.7,50.5,30.27,West,267,0.0,1.0,69,0.00,,,0.00,0,Wunderground v.1.15,2013-03-02 03:20:00,
2013-03-01 19:26:00,60.2,50.4,30.27,West,267,0.0,1.0,70,0.00,,,0.00,0,Wunderground v.1.15,2013-03-02 03:26:00,
2013-03-01 19:32:00,59.7,50.3,30.27,West,267,0.0,1.0,71,0.00,,,0.00,0,Wunderground v.1.15,2013-03-02 03:32:00,
2013-03-01 19:38:00,59.3,49.9,30.27,West,267,0.0,1.0,71,0.00,,,0.00,0,Wunderground v.1.15,2013-03-02 03:38:00,
2013-03-01 19:44:00,58.7,49.3,30.27,West,267,0.0,1.0,71,0.00,,,0.00,0,Wunderground v.1.15,2013-03-02 03:44:00,
2013-03-01 19:50:00,58.3,49.3,30.27,West,267,0.0,1.0,72,0.00,,,0.00,0,Wunderground v.1.15,2013-03-02 03:50:00,
2013-03-01 19:56:00,57.8,49.2,30.28,West,267,0.0,1.0,73,0.00,,,0.00,0,Wunderground v.1.15,2013-03-02 03:56:00,
2013-03-01 20:02:00,57.3,49.1,30.28,West,267,0.0,0.0,74,0.00,,,0.00,0,Wunderground v.1.15,2013-03-02 04:02:00,
2013-03-01 20:08:00,56.8,49.0,30.28,West,267,0.0,0.0,75,0.00,,,0.00,0,Wunderground v.1.15,2013-03-02 04:08:00,
2013-03-01 20:14:00,56.4,48.9,30.29,West,267,0.0,0.0,76,0.00,,,0.00,0,Wunderground v.1.15,2013-03-02 04:14:00,
2013-03-01 20:20:00,55.8,49.0,30.29,West,267,0.0,0.0,78,0.00,,,0.00,0,Wunderground v.1.15,2013-03-02 04:20:00,
2013-03-01 20:26:00,55.3,48.9,30.29,West,267,0.0,0.0,79,0.00,,,0.00,0,Wunderground v.1.15,2013-03-02 04:26:00,
2013-03-01 20:32:00,54.9,48.5,30.29,West,267,0.0,1.0,79,0.00,,,0.00,0,Wunderground v.1.15,2013-03-02 04:32:00,
2013-03-01 20:38:00,54.4,48.4,30.29,West,267,0.0,1.0,80,0.00,,,0.00,0,Wunderground v.1.15,2013-03-02 04:38:00,
2013-03-01 20:44:00,54.1,48.1,30.29,West,267,0.0,0.0,80,0.00,,,0.00,0,Wunderground v.1.15,2013-03-02 04:44:00,
2013-03-01 20:50:00,53.9,48.2,30.28,West,267,0.0,0.0,81,0.00,,,0.00,0,Wunderground v.1.15,2013-03-02 04:50:00,
2013-03-01 20:56:00,53.7,48.0,30.29,West,267,0.0,0.0,81,0.00,,,0.00,0,Wunderground v.1.15,2013-03-02 04:56:00,
2013-03-01 21:00:00,53.5,48.1,30.29,West,267,0.0,1.0,82,0.00,,,0.00,0,Wunderground v.1.15,2013-03-02 05:00:00,
2013-03-01 21:02:00,53.4,48.0,30.29,West,267,0.0,1.0,82,0.00,,,0.00,0,Wunderground v.1.15,2013-03-02 05:02:00,
2013-03-01 21:08:00,53.2,47.8,30.28,West,267,0.0,1.0,82,0.00,,,0.00,0,Wunderground v.1.15,2013-03-02 05:08:00,
2013-03-01 21:14:00,53.0,47.7,30.28,West,267,0.0,1.0,82,0.00,,,0.00,0,Wunderground v.1.15,2013-03-02 05:14:00,
2013-03-01 21:20:00,52.7,47.0,30.28,West,267,0.0,1.0,81,0.00,,,0.00,0,Wunderground v.1.15,2013-03-02 05:20:00,
2013-03-01 21:26:00,52.5,47.2,30.28,West,267,0.0,1.0,82,0.00,,,0.00,0,Wunderground v.1.15,2013-03-02 05:26:00,
2013-03-01 21:32:00,52.2,46.9,30.28,West,267,0.0,1.0,82,0.00,,,0.00,0,Wunderground v.1.15,2013-03-02 05:32:00,
2013-03-01 21:38:00,52.0,46.7,30.28,West,267,0.0,1.0,82,0.00,,,0.00,0,Wunderground v.1.15,2013-03-02 05:38:00,
2013-03-01 21:44:00,51.7,46.7,30.28,West,267,0.0,1.0,83,0.00,,,0.00,0,Wunderground v.1.15,2013-03-02 05:44:00,
2013-03-01 21:50:00,51.3,46.3,30.29,West,267,0.0,1.0,83,0.00,,,0.00,0,Wunderground v.1.15,2013-03-02 05:50:00,
2013-03-01 21:56:00,51.1,46.1,30.28,West,267,0.0,1.0,83,0.00,,,0.00,0,Wunderground v.1.15,2013-03-02 05:56:00,
2013-03-01 22:02:00,50.9,46.2,30.28,West,267,0.0,0.0,84,0.00,,,0.00,0,Wunderground v.1.15,2013-03-02 06:02:00,
2013-03-01 22:08:00,50.7,46.0,30.28,West,267,0.0,0.0,84,0.00,,,0.00,0,Wunderground v.1.15,2013-03-02 06:08:00,
2013-03-01 22:14:00,50.5,45.8,30.28,West,267,0.0,0.0,84,0.00,,,0.00,0,Wunderground v.1.15,2013-03-02 06:14:00,
2013-03-01 22:20:00,50.2,45.6,30.28,West,267,0.0,0.0,84,0.00,,,0.00,0,Wunderground v.1.15,2013-03-02 06:20:00,
2013-03-01 22:26:00,50.0,45.7,30.28,West,267,0.0,0.0,85,0.00,,,0.00,0,Wunderground v.1.15,2013-03-02 06:26:00,
2013-03-01 22:32:00,49.7,45.4,30.28,West,267,0.0,0.0,85,0.00,,,0.00,0,Wunderground v.1.15,2013-03-02 06:32:00,
2013-03-01 22:38:00,49.6,45.3,30.28,West,267,0.0,0.0,85,0.00,,,0.00,0,Wunderground v.1.15,2013-03-02 06:38:00,
2013-03-01 22:44:00,49.4,45.4,30.28,West,267,0.0,0.0,86,0.00,,,0.00,0,Wunderground v.1.15,2013-03-02 06:44:00,
2013-03-01 22:50:00,49.2,45.2,30.28,West,267,0.0,0.0,86,0.00,,,0.00,0,Wunderground v.1.15,2013-03-02 06:50:00,
2013-03-01 22:56:00,49.0,45.0,30.27,West,267,0.0,0.0,86,0.00,,,0.00,0,Wunderground v.1.15,2013-03-02 06:56:00,
2013-03-01 23:02:00,48.8,44.8,30.27,West,267,0.0,0.0,86,0.00,,,0.00,0,Wunderground v.1.15,2013-03-02 07:02:00,
2013-03-01 23:08:00,48.6,44.6,30.27,West,267,0.0,0.0,86,0.00,,,0.00,0,Wunderground v.1.15,2013-03-02 07:08:00,
2013-03-01 23:14:00,48.4,44.4,30.27,West,267,0.0,0.0,86,0.00,,,0.00,0,Wunderground v.1.15,2013-03-02 07:14:00,
2013-03-01 23:20:00,48.3,44.6,30.27,West,267,0.0,0.0,87,0.00,,,0.00,0,Wunderground v.1.15,2013-03-02 07:20:00,
2013-03-01 23:26:00,48.1,44.4,30.27,West,267,0.0,0.0,87,0.00,,,0.00,0,Wunderground v.1.15,2013-03-02 07:26:00,
2013-03-01 23:32:00,47.9,44.2,30.27,West,267,0.0,0.0,87,0.00,,,0.00,0,Wunderground v.1.15,2013-03-02 07:32:00,
2013-03-01 23:38:00,47.6,43.9,30.27,West,267,0.0,0.0,87,0.00,,,0.00,0,Wunderground v.1.15,2013-03-02 07:38:00,
2013-03-01 23:44:00,47.4,43.7,30.27,West,267,0.0,0.0,87,0.00,,,0.00,0,Wunderground v.1.15,2013-03-02 07:44:00,
2013-03-01 23:50:00,47.3,43.9,30.27,West,267,0.0,0.0,88,0.00,,,0.00,0,Wunderground v.1.15,2013-03-02 07:50:00,
2013-03-01 23:56:00,47.2,43.8,30.27,West,267,0.0,0.0,88,0.00,,,0.00,0,Wunderground v.1.15,2013-03-02 07:56:00,